sensor_id;sensor_type;location;lat;lon;timestamp;P1;durP1;ratioP1;P2;durP2;ratioP2
51515;SDS011;37603;55.614;37.326;2023-09-19T00:02:22;17.5;;;14.0;;
51515;SDS011;37603;55.614;37.326;2023-09-19T00:08:21;21.0;;;14.6;;
51515;SDS011;37603;55.614;37.326;2023-09-19T00:14:20;19.3;;;14.4;;
51515;SDS011;37603;55.614;37.326;2023-09-19T00:20:20;20.6;;;15.1;;
51515;SDS011;37603;55.614;37.326;2023-09-19T00:26:19;16.9;;;14.7;;
51515;SDS011;37603;55.614;37.326;2023-09-19T00:32:18;22.5;;;16.2;;
51515;SDS011;37603;55.614;37.326;2023-09-19T00:38:18;20.6;;;15.7;;
51515;SDS011;37603;55.614;37.326;2023-09-19T00:44:17;18.6;;;15.1;;
51515;SDS011;37603;55.614;37.326;2023-09-19T00:50:17;18.1;;;13.7;;
51515;SDS011;37603;55.614;37.326;2023-09-19T00:56:15;16.6;;;12.2;;
51515;SDS011;37603;55.614;37.326;2023-09-19T01:02:15;21.5;;;15.4;;
51515;SDS011;37603;55.614;37.326;2023-09-19T01:08:18;21.2;;;15.1;;
51515;SDS011;37603;55.614;37.326;2023-09-19T01:14:15;21.1;;;15.5;;
51515;SDS011;37603;55.614;37.326;2023-09-19T01:20:18;21.8;;;15.1;;
51515;SDS011;37603;55.614;37.326;2023-09-19T01:26:17;20.6;;;14.3;;
51515;SDS011;37603;55.614;37.326;2023-09-19T01:32:13;24.1;;;16.0;;
51515;SDS011;37603;55.614;37.326;2023-09-19T01:38:11;27.0;;;18.7;;
51515;SDS011;37603;55.614;37.326;2023-09-19T01:44:11;26.1;;;18.4;;
51515;SDS011;37603;55.614;37.326;2023-09-19T01:50:12;27.5;;;19.3;;
51515;SDS011;37603;55.614;37.326;2023-09-19T01:56:09;30.2;;;20.2;;
51515;SDS011;37603;55.614;37.326;2023-09-19T02:02:07;25.2;;;18.5;;
51515;SDS011;37603;55.614;37.326;2023-09-19T02:08:07;24.6;;;17.5;;
51515;SDS011;37603;55.614;37.326;2023-09-19T02:14:06;31.4;;;20.1;;
51515;SDS011;37603;55.614;37.326;2023-09-19T02:20:06;27.6;;;19.0;;
51515;SDS011;37603;55.614;37.326;2023-09-19T02:26:05;41.8;;;24.5;;
51515;SDS011;37603;55.614;37.326;2023-09-19T02:32:04;43.2;;;26.9;;
51515;SDS011;37603;55.614;37.326;2023-09-19T02:38:03;51.1;;;27.5;;
51515;SDS011;37603;55.614;37.326;2023-09-19T02:44:03;53.5;;;29.9;;
51515;SDS011;37603;55.614;37.326;2023-09-19T02:50:02;47.5;;;29.1;;
51515;SDS011;37603;55.614;37.326;2023-09-19T02:56:01;43.0;;;27.3;;
51515;SDS011;37603;55.614;37.326;2023-09-19T03:02:00;65.8;;;33.6;;
51515;SDS011;37603;55.614;37.326;2023-09-19T03:08:00;71.4;;;35.1;;
51515;SDS011;37603;55.614;37.326;2023-09-19T03:13:59;61.3;;;32.3;;
51515;SDS011;37603;55.614;37.326;2023-09-19T03:19:58;54.8;;;31.5;;
51515;SDS011;37603;55.614;37.326;2023-09-19T03:25:57;49.1;;;28.0;;
51515;SDS011;37603;55.614;37.326;2023-09-19T03:31:57;50.8;;;27.7;;
51515;SDS011;37603;55.614;37.326;2023-09-19T03:37:56;55.6;;;32.3;;
51515;SDS011;37603;55.614;37.326;2023-09-19T03:43:56;66.5;;;35.3;;
51515;SDS011;37603;55.614;37.326;2023-09-19T03:49:55;84.9;;;38.6;;
51515;SDS011;37603;55.614;37.326;2023-09-19T03:55:54;59.8;;;35.1;;
51515;SDS011;37603;55.614;37.326;2023-09-19T04:01:53;74.7;;;37.8;;
51515;SDS011;37603;55.614;37.326;2023-09-19T04:07:53;73.5;;;37.2;;
51515;SDS011;37603;55.614;37.326;2023-09-19T04:13:52;59.7;;;33.5;;
51515;SDS011;37603;55.614;37.326;2023-09-19T04:19:51;60.4;;;34.8;;
51515;SDS011;37603;55.614;37.326;2023-09-19T04:25:54;44.5;;;29.6;;
51515;SDS011;37603;55.614;37.326;2023-09-19T04:31:50;50.1;;;31.4;;
51515;SDS011;37603;55.614;37.326;2023-09-19T04:37:50;37.9;;;25.9;;
51515;SDS011;37603;55.614;37.326;2023-09-19T04:43:49;37.8;;;24.8;;
51515;SDS011;37603;55.614;37.326;2023-09-19T04:49:48;42.0;;;26.2;;
51515;SDS011;37603;55.614;37.326;2023-09-19T04:55:49;33.4;;;23.8;;
51515;SDS011;37603;55.614;37.326;2023-09-19T05:01:47;34.5;;;23.5;;
51515;SDS011;37603;55.614;37.326;2023-09-19T05:07:46;28.3;;;22.2;;
51515;SDS011;37603;55.614;37.326;2023-09-19T05:13:45;31.6;;;23.9;;
51515;SDS011;37603;55.614;37.326;2023-09-19T05:19:45;35.6;;;24.4;;
51515;SDS011;37603;55.614;37.326;2023-09-19T05:25:44;29.3;;;22.8;;
51515;SDS011;37603;55.614;37.326;2023-09-19T05:31:44;33.8;;;23.7;;
51515;SDS011;37603;55.614;37.326;2023-09-19T05:37:43;30.0;;;22.7;;
51515;SDS011;37603;55.614;37.326;2023-09-19T05:43:43;29.0;;;21.6;;
51515;SDS011;37603;55.614;37.326;2023-09-19T05:49:43;34.7;;;23.8;;
51515;SDS011;37603;55.614;37.326;2023-09-19T05:55:42;28.6;;;21.4;;
51515;SDS011;37603;55.614;37.326;2023-09-19T06:01:41;29.4;;;21.1;;
51515;SDS011;37603;55.614;37.326;2023-09-19T06:07:40;26.6;;;21.8;;
51515;SDS011;37603;55.614;37.326;2023-09-19T06:13:40;32.8;;;23.9;;
51515;SDS011;37603;55.614;37.326;2023-09-19T06:19:39;31.4;;;23.2;;
51515;SDS011;37603;55.614;37.326;2023-09-19T06:25:39;32.3;;;25.4;;
51515;SDS011;37603;55.614;37.326;2023-09-19T06:31:38;33.4;;;24.3;;
51515;SDS011;37603;55.614;37.326;2023-09-19T06:43:37;32.1;;;25.5;;
51515;SDS011;37603;55.614;37.326;2023-09-19T06:49:37;33.8;;;25.1;;
51515;SDS011;37603;55.614;37.326;2023-09-19T06:55:36;31.7;;;24.9;;
51515;SDS011;37603;55.614;37.326;2023-09-19T07:07:36;30.7;;;23.5;;
51515;SDS011;37603;55.614;37.326;2023-09-19T07:13:40;28.3;;;22.0;;
51515;SDS011;37603;55.614;37.326;2023-09-19T07:19:35;29.2;;;22.2;;
51515;SDS011;37603;55.614;37.326;2023-09-19T07:25:35;25.9;;;21.2;;
51515;SDS011;37603;55.614;37.326;2023-09-19T07:31:34;24.4;;;20.1;;
51515;SDS011;37603;55.614;37.326;2023-09-19T07:37:34;26.8;;;21.3;;
51515;SDS011;37603;55.614;37.326;2023-09-19T07:43:33;23.8;;;19.9;;
51515;SDS011;37603;55.614;37.326;2023-09-19T07:49:33;26.0;;;20.8;;
51515;SDS011;37603;55.614;37.326;2023-09-19T07:55:33;28.0;;;20.8;;
51515;SDS011;37603;55.614;37.326;2023-09-19T08:01:32;27.9;;;19.8;;
51515;SDS011;37603;55.614;37.326;2023-09-19T08:07:32;26.5;;;20.0;;
51515;SDS011;37603;55.614;37.326;2023-09-19T08:13:32;26.9;;;19.2;;
51515;SDS011;37603;55.614;37.326;2023-09-19T08:19:32;22.2;;;18.4;;
51515;SDS011;37603;55.614;37.326;2023-09-19T08:25:31;26.0;;;18.9;;
51515;SDS011;37603;55.614;37.326;2023-09-19T08:31:31;24.3;;;18.5;;
51515;SDS011;37603;55.614;37.326;2023-09-19T08:37:32;22.0;;;16.9;;
51515;SDS011;37603;55.614;37.326;2023-09-19T08:43:30;21.2;;;16.7;;
51515;SDS011;37603;55.614;37.326;2023-09-19T08:49:33;20.4;;;16.9;;
51515;SDS011;37603;55.614;37.326;2023-09-19T08:55:30;24.7;;;17.1;;
51515;SDS011;37603;55.614;37.326;2023-09-19T09:01:30;23.2;;;17.5;;
51515;SDS011;37603;55.614;37.326;2023-09-19T09:07:30;23.1;;;18.0;;
51515;SDS011;37603;55.614;37.326;2023-09-19T09:13:29;23.9;;;17.7;;
51515;SDS011;37603;55.614;37.326;2023-09-19T09:19:30;21.0;;;15.7;;
51515;SDS011;37603;55.614;37.326;2023-09-19T09:31:29;21.2;;;16.4;;
51515;SDS011;37603;55.614;37.326;2023-09-19T09:37:29;23.6;;;14.9;;
51515;SDS011;37603;55.614;37.326;2023-09-19T09:43:29;18.3;;;14.5;;
51515;SDS011;37603;55.614;37.326;2023-09-19T09:49:29;20.7;;;14.9;;
51515;SDS011;37603;55.614;37.326;2023-09-19T09:55:28;21.1;;;16.2;;
51515;SDS011;37603;55.614;37.326;2023-09-19T10:01:28;20.5;;;15.6;;
51515;SDS011;37603;55.614;37.326;2023-09-19T10:07:28;21.3;;;16.1;;
51515;SDS011;37603;55.614;37.326;2023-09-19T10:13:29;29.5;;;20.2;;
51515;SDS011;37603;55.614;37.326;2023-09-19T10:19:29;17.9;;;14.0;;
51515;SDS011;37603;55.614;37.326;2023-09-19T10:25:28;18.7;;;12.9;;
51515;SDS011;37603;55.614;37.326;2023-09-19T10:31:27;16.9;;;12.2;;
51515;SDS011;37603;55.614;37.326;2023-09-19T10:37:27;15.8;;;12.2;;
51515;SDS011;37603;55.614;37.326;2023-09-19T10:43:29;19.5;;;12.4;;
51515;SDS011;37603;55.614;37.326;2023-09-19T10:49:27;18.2;;;13.0;;
51515;SDS011;37603;55.614;37.326;2023-09-19T10:55:27;17.0;;;11.9;;
51515;SDS011;37603;55.614;37.326;2023-09-19T11:07:27;17.4;;;12.7;;
51515;SDS011;37603;55.614;37.326;2023-09-19T11:13:27;17.5;;;12.2;;
51515;SDS011;37603;55.614;37.326;2023-09-19T11:43:28;15.4;;;9.6;;
51515;SDS011;37603;55.614;37.326;2023-09-19T11:49:26;9.8;;;7.1;;
51515;SDS011;37603;55.614;37.326;2023-09-19T11:55:28;10.0;;;7.7;;
51515;SDS011;37603;55.614;37.326;2023-09-19T12:01:29;8.4;;;6.9;;
51515;SDS011;37603;55.614;37.326;2023-09-19T12:07:25;8.0;;;6.9;;
51515;SDS011;37603;55.614;37.326;2023-09-19T12:13:26;7.7;;;5.9;;
51515;SDS011;37603;55.614;37.326;2023-09-19T12:25:25;8.6;;;6.5;;
51515;SDS011;37603;55.614;37.326;2023-09-19T12:31:25;9.4;;;6.3;;
51515;SDS011;37603;55.614;37.326;2023-09-19T12:37:25;10.4;;;6.5;;
51515;SDS011;37603;55.614;37.326;2023-09-19T12:43:25;9.0;;;6.4;;
51515;SDS011;37603;55.614;37.326;2023-09-19T12:49:26;12.2;;;8.7;;
51515;SDS011;37603;55.614;37.326;2023-09-19T12:55:26;11.3;;;7.3;;
51515;SDS011;37603;55.614;37.326;2023-09-19T13:01:25;13.9;;;7.4;;
51515;SDS011;37603;55.614;37.326;2023-09-19T13:13:25;8.1;;;5.6;;
51515;SDS011;37603;55.614;37.326;2023-09-19T13:25:25;9.1;;;5.8;;
51515;SDS011;37603;55.614;37.326;2023-09-19T13:31:24;8.6;;;6.1;;
51515;SDS011;37603;55.614;37.326;2023-09-19T13:37:24;8.5;;;6.1;;
51515;SDS011;37603;55.614;37.326;2023-09-19T13:43:25;9.7;;;5.8;;
51515;SDS011;37603;55.614;37.326;2023-09-19T13:49:24;9.1;;;5.7;;
51515;SDS011;37603;55.614;37.326;2023-09-19T13:55:24;9.7;;;6.6;;
51515;SDS011;37603;55.614;37.326;2023-09-19T14:01:24;10.0;;;5.9;;
51515;SDS011;37603;55.614;37.326;2023-09-19T14:07:23;11.3;;;6.4;;
51515;SDS011;37603;55.614;37.326;2023-09-19T14:13:23;9.9;;;6.3;;
51515;SDS011;37603;55.614;37.326;2023-09-19T14:19:23;9.7;;;5.7;;
51515;SDS011;37603;55.614;37.326;2023-09-19T14:40:26;8.1;;;5.8;;
51515;SDS011;37603;55.614;37.326;2023-09-19T14:41:01;unknown;;;unknown;;
51515;SDS011;37603;55.614;37.326;2023-09-19T14:42:17;8.1;;;unknown;;
51515;SDS011;37603;55.614;37.326;2023-09-19T14:43:23;8.4;;;5.9;;
51515;SDS011;37603;55.614;37.326;2023-09-19T14:49:22;11.1;;;6.9;;
51515;SDS011;37603;55.614;37.326;2023-09-19T14:55:22;12.9;;;7.4;;
51515;SDS011;37603;55.614;37.326;2023-09-19T15:01:22;12.3;;;7.3;;
51515;SDS011;37603;55.614;37.326;2023-09-19T15:07:22;13.7;;;6.7;;
51515;SDS011;37603;55.614;37.326;2023-09-19T15:19:22;9.7;;;7.2;;
51515;SDS011;37603;55.614;37.326;2023-09-19T15:31:21;9.4;;;7.5;;
51515;SDS011;37603;55.614;37.326;2023-09-19T15:37:21;11.9;;;7.7;;
51515;SDS011;37603;55.614;37.326;2023-09-19T15:43:20;13.0;;;8.0;;
51515;SDS011;37603;55.614;37.326;2023-09-19T15:49:20;9.5;;;7.7;;
51515;SDS011;37603;55.614;37.326;2023-09-19T15:55:19;13.4;;;8.2;;
51515;SDS011;37603;55.614;37.326;2023-09-19T16:01:20;12.8;;;8.2;;
51515;SDS011;37603;55.614;37.326;2023-09-19T16:07:19;13.5;;;8.4;;
51515;SDS011;37603;55.614;37.326;2023-09-19T16:13:18;14.7;;;8.5;;
51515;SDS011;37603;55.614;37.326;2023-09-19T16:19:18;12.9;;;8.6;;
51515;SDS011;37603;55.614;37.326;2023-09-19T16:25:17;11.6;;;8.8;;
51515;SDS011;37603;55.614;37.326;2023-09-19T16:31:17;18.3;;;9.5;;
51515;SDS011;37603;55.614;37.326;2023-09-19T16:37:17;13.2;;;9.0;;
51515;SDS011;37603;55.614;37.326;2023-09-19T16:43:16;15.4;;;9.4;;
51515;SDS011;37603;55.614;37.326;2023-09-19T16:49:16;16.6;;;9.9;;
51515;SDS011;37603;55.614;37.326;2023-09-19T16:55:15;16.7;;;10.3;;
51515;SDS011;37603;55.614;37.326;2023-09-19T17:01:16;19.6;;;11.6;;
51515;SDS011;37603;55.614;37.326;2023-09-19T17:07:14;19.3;;;12.4;;
51515;SDS011;37603;55.614;37.326;2023-09-19T17:13:14;23.0;;;15.6;;
51515;SDS011;37603;55.614;37.326;2023-09-19T17:19:13;28.8;;;18.6;;
51515;SDS011;37603;55.614;37.326;2023-09-19T17:25:13;28.9;;;19.3;;
51515;SDS011;37603;55.614;37.326;2023-09-19T17:31:13;35.5;;;22.7;;
51515;SDS011;37603;55.614;37.326;2023-09-19T17:37:12;41.9;;;26.9;;
51515;SDS011;37603;55.614;37.326;2023-09-19T17:43:12;35.9;;;23.5;;
51515;SDS011;37603;55.614;37.326;2023-09-19T17:49:11;34.3;;;21.2;;
51515;SDS011;37603;55.614;37.326;2023-09-19T17:55:11;35.1;;;22.8;;
51515;SDS011;37603;55.614;37.326;2023-09-19T18:01:10;33.0;;;20.2;;
51515;SDS011;37603;55.614;37.326;2023-09-19T18:07:09;26.5;;;18.9;;
51515;SDS011;37603;55.614;37.326;2023-09-19T18:13:09;26.2;;;18.7;;
51515;SDS011;37603;55.614;37.326;2023-09-19T18:19:08;24.1;;;17.5;;
51515;SDS011;37603;55.614;37.326;2023-09-19T18:25:08;22.3;;;17.0;;
51515;SDS011;37603;55.614;37.326;2023-09-19T18:31:08;22.7;;;16.0;;
51515;SDS011;37603;55.614;37.326;2023-09-19T18:37:08;23.7;;;16.0;;
51515;SDS011;37603;55.614;37.326;2023-09-19T18:43:06;21.0;;;15.3;;
51515;SDS011;37603;55.614;37.326;2023-09-19T18:49:06;22.5;;;15.2;;
51515;SDS011;37603;55.614;37.326;2023-09-19T18:55:06;21.0;;;14.3;;
51515;SDS011;37603;55.614;37.326;2023-09-19T19:01:05;19.3;;;14.6;;
51515;SDS011;37603;55.614;37.326;2023-09-19T19:07:05;17.4;;;14.4;;
51515;SDS011;37603;55.614;37.326;2023-09-19T19:13:04;16.7;;;13.3;;
51515;SDS011;37603;55.614;37.326;2023-09-19T19:19:03;18.8;;;14.2;;
51515;SDS011;37603;55.614;37.326;2023-09-19T19:25:03;16.7;;;13.6;;
51515;SDS011;37603;55.614;37.326;2023-09-19T19:31:05;18.3;;;13.7;;
51515;SDS011;37603;55.614;37.326;2023-09-19T19:37:02;16.8;;;13.1;;
51515;SDS011;37603;55.614;37.326;2023-09-19T19:43:02;14.9;;;12.8;;
51515;SDS011;37603;55.614;37.326;2023-09-19T19:49:01;15.5;;;12.4;;
51515;SDS011;37603;55.614;37.326;2023-09-19T19:55:00;15.9;;;11.6;;
51515;SDS011;37603;55.614;37.326;2023-09-19T20:01:00;11.9;;;10.7;;
51515;SDS011;37603;55.614;37.326;2023-09-19T20:06:59;13.1;;;11.1;;
51515;SDS011;37603;55.614;37.326;2023-09-19T20:12:59;15.1;;;11.3;;
51515;SDS011;37603;55.614;37.326;2023-09-19T20:18:59;14.7;;;10.9;;
51515;SDS011;37603;55.614;37.326;2023-09-19T20:24:58;16.4;;;11.0;;
51515;SDS011;37603;55.614;37.326;2023-09-19T20:30:57;11.4;;;10.1;;
51515;SDS011;37603;55.614;37.326;2023-09-19T20:36:57;13.8;;;10.7;;
51515;SDS011;37603;55.614;37.326;2023-09-19T20:42:56;13.1;;;10.3;;
51515;SDS011;37603;55.614;37.326;2023-09-19T20:48:55;14.2;;;10.7;;
51515;SDS011;37603;55.614;37.326;2023-09-19T20:54:55;12.7;;;10.7;;
51515;SDS011;37603;55.614;37.326;2023-09-19T21:00:57;13.3;;;10.7;;
51515;SDS011;37603;55.614;37.326;2023-09-19T21:06:54;12.5;;;11.0;;
51515;SDS011;37603;55.614;37.326;2023-09-19T21:12:53;14.4;;;10.7;;
51515;SDS011;37603;55.614;37.326;2023-09-19T21:18:53;13.1;;;10.5;;
51515;SDS011;37603;55.614;37.326;2023-09-19T21:24:52;13.9;;;10.8;;
51515;SDS011;37603;55.614;37.326;2023-09-19T21:30:56;14.4;;;11.1;;
51515;SDS011;37603;55.614;37.326;2023-09-19T21:36:51;17.9;;;11.4;;
51515;SDS011;37603;55.614;37.326;2023-09-19T21:42:51;20.6;;;11.9;;
51515;SDS011;37603;55.614;37.326;2023-09-19T21:48:51;15.0;;;11.7;;
51515;SDS011;37603;55.614;37.326;2023-09-19T21:54:51;19.7;;;12.2;;
51515;SDS011;37603;55.614;37.326;2023-09-19T22:00:52;15.8;;;11.8;;
51515;SDS011;37603;55.614;37.326;2023-09-19T22:06:48;16.9;;;11.9;;
51515;SDS011;37603;55.614;37.326;2023-09-19T22:12:48;15.4;;;10.9;;
51515;SDS011;37603;55.614;37.326;2023-09-19T22:18:47;15.2;;;11.0;;
51515;SDS011;37603;55.614;37.326;2023-09-19T22:24:46;13.1;;;10.4;;
51515;SDS011;37603;55.614;37.326;2023-09-19T22:30:46;13.3;;;10.3;;
51515;SDS011;37603;55.614;37.326;2023-09-19T22:36:45;15.1;;;10.7;;
51515;SDS011;37603;55.614;37.326;2023-09-19T22:42:45;14.1;;;10.1;;
51515;SDS011;37603;55.614;37.326;2023-09-19T22:48:44;12.8;;;9.7;;
51515;SDS011;37603;55.614;37.326;2023-09-19T22:54:44;11.8;;;10.2;;
51515;SDS011;37603;55.614;37.326;2023-09-19T23:06:43;12.5;;;10.1;;
51515;SDS011;37603;55.614;37.326;2023-09-19T23:12:42;11.3;;;10.1;;
51515;SDS011;37603;55.614;37.326;2023-09-19T23:18:41;14.4;;;10.2;;
51515;SDS011;37603;55.614;37.326;2023-09-19T23:24:41;11.0;;;9.7;;
51515;SDS011;37603;55.614;37.326;2023-09-19T23:30:40;11.9;;;9.6;;
51515;SDS011;37603;55.614;37.326;2023-09-19T23:36:40;13.5;;;10.3;;
51515;SDS011;37603;55.614;37.326;2023-09-19T23:42:39;14.3;;;10.7;;
51515;SDS011;37603;55.614;37.326;2023-09-19T23:48:38;13.1;;;9.9;;
51515;SDS011;37603;55.614;37.326;2023-09-19T23:54:38;12.3;;;9.9;;
